createdAt,value
2022-08-07T00:01:43.714Z,68.70
2022-08-07T00:04:06.230Z,69.30
2022-08-07T00:06:36.336Z,69.46
2022-08-07T00:09:16.267Z,69.54
2022-08-07T00:11:54.104Z,69.58
2022-08-07T00:14:25.362Z,70.19
2022-08-07T00:16:57.595Z,70.70
2022-08-07T00:19:26.176Z,71.31
2022-08-07T00:22:10.999Z,71.70
2022-08-07T00:24:38.824Z,71.64
2022-08-07T00:27:07.262Z,71.86
2022-08-07T00:29:37.030Z,71.94
2022-08-07T00:32:06.965Z,72.36
2022-08-07T00:34:35.630Z,72.38
2022-08-07T00:37:02.911Z,72.67
2022-08-07T00:39:32.395Z,72.64
2022-08-07T00:42:01.753Z,72.71
2022-08-07T00:44:29.587Z,73.05
2022-08-07T00:46:56.344Z,73.63
2022-08-07T00:49:24.843Z,73.91
2022-08-07T00:52:10.935Z,74.54
2022-08-07T00:54:40.619Z,74.38
2022-08-07T00:57:09.189Z,74.58
2022-08-07T00:59:37.664Z,75.25
2022-08-07T01:02:09.044Z,74.96
2022-08-07T01:04:58.211Z,75.36
2022-08-07T01:07:29.264Z,75.53
2022-08-07T01:10:06.322Z,75.24
2022-08-07T01:12:53.389Z,75.71
2022-08-07T01:15:23.252Z,76.93
2022-08-07T01:18:17.693Z,76.98
2022-08-07T01:20:57.351Z,77.03
2022-08-07T01:23:36.719Z,77.16
2022-08-07T01:26:12.368Z,76.90
2022-08-07T01:28:48.498Z,76.87
2022-08-07T01:31:19.000Z,76.89
2022-08-07T01:33:55.007Z,76.55
2022-08-07T01:36:33.179Z,77.08
2022-08-07T01:39:10.136Z,77.42
2022-08-07T01:41:40.836Z,77.39
2022-08-07T01:44:28.032Z,78.06
2022-08-07T01:46:57.788Z,78.75
2022-08-07T01:49:31.961Z,79.51
2022-08-07T01:52:04.921Z,79.81
2022-08-07T01:54:44.738Z,79.98
2022-08-07T01:57:25.905Z,79.95
2022-08-07T01:59:57.747Z,80.54
2022-08-07T02:03:11.640Z,81.34
2022-08-07T02:06:01.078Z,80.53
2022-08-07T02:08:45.252Z,80.99
2022-08-07T02:11:31.059Z,80.67
2022-08-07T02:14:08.570Z,81.25
2022-08-07T02:16:40.114Z,80.87
2022-08-07T02:20:05.280Z,81.11
2022-08-07T02:22:02.886Z,81.02
2022-08-07T02:24:38.380Z,81.98
2022-08-07T02:27:14.256Z,82.60
2022-08-07T02:29:53.921Z,82.48
2022-08-07T02:32:29.812Z,81.85
2022-08-07T02:35:01.613Z,82.11
2022-08-07T02:37:37.927Z,81.97
2022-08-07T02:40:34.874Z,81.44
2022-08-07T02:43:07.783Z,81.69
2022-08-07T02:46:00.764Z,82.22
2022-08-07T02:48:34.480Z,83.34
2022-08-07T02:51:28.866Z,83.67
2022-08-07T02:53:59.296Z,84.02
2022-08-07T02:56:32.080Z,82.62
2022-08-07T02:59:02.281Z,81.97
2022-08-07T03:01:35.283Z,82.54
2022-08-07T03:04:07.083Z,84.15
2022-08-07T03:06:35.408Z,84.76
2022-08-07T03:09:05.382Z,83.88
2022-08-07T03:11:38.939Z,83.97
2022-08-07T03:14:07.090Z,84.21
2022-08-07T03:16:35.713Z,84.52
2022-08-07T03:19:02.879Z,85.34
2022-08-07T03:21:33.000Z,86.52
2022-08-07T03:24:20.592Z,87.30
2022-08-07T03:26:57.978Z,86.66
2022-08-07T03:29:33.680Z,85.43
2022-08-07T03:32:13.230Z,85.23
2022-08-07T03:34:47.464Z,85.21
2022-08-07T03:37:32.776Z,86.83
2022-08-07T03:40:15.571Z,86.06
2022-08-07T03:42:43.762Z,85.19
2022-08-07T03:45:11.467Z,84.62
2022-08-07T03:47:45.010Z,84.02
2022-08-07T03:50:23.444Z,84.00
2022-08-07T03:52:52.973Z,85.11
2022-08-07T03:55:19.868Z,86.42
2022-08-07T03:59:06.776Z,85.37
2022-08-07T04:00:37.574Z,86.18
2022-08-07T04:03:13.306Z,86.16
2022-08-07T04:05:42.260Z,84.10
2022-08-07T04:08:12.577Z,85.19
2022-08-07T04:10:54.472Z,86.14
2022-08-07T04:14:10.859Z,86.47
2022-08-07T04:16:30.049Z,85.71
2022-08-07T04:19:01.745Z,85.28
2022-08-07T04:21:32.018Z,86.37
2022-08-07T04:24:07.908Z,84.66
2022-08-07T04:26:37.065Z,85.88
2022-08-07T04:29:04.000Z,85.25
2022-08-07T04:31:38.852Z,86.32
2022-08-07T04:34:24.251Z,85.86
2022-08-07T04:36:54.488Z,85.30
2022-08-07T04:39:25.881Z,84.05
2022-08-07T04:41:52.713Z,84.14
2022-08-07T04:44:20.885Z,83.40
2022-08-07T04:47:08.213Z,84.82
2022-08-07T04:49:41.529Z,85.35
2022-08-07T04:52:35.859Z,85.42
2022-08-07T04:58:15.616Z,84.81
2022-08-07T04:59:15.881Z,83.05
2022-08-07T05:01:51.325Z,83.98
2022-08-07T05:04:43.960Z,83.83
2022-08-07T05:07:20.975Z,82.69
2022-08-07T05:10:11.735Z,83.07
2022-08-07T05:12:46.172Z,82.27
2022-08-07T05:15:27.048Z,82.88
2022-08-07T05:18:09.264Z,83.55
2022-08-07T05:20:45.082Z,82.55
2022-08-07T05:23:16.551Z,83.07
2022-08-07T05:26:13.377Z,82.63
2022-08-07T05:28:35.056Z,82.71
2022-08-07T05:31:03.643Z,80.88
2022-08-07T05:33:35.505Z,79.85
2022-08-07T05:36:07.103Z,80.69
2022-08-07T05:38:59.873Z,79.52
2022-08-07T05:41:29.533Z,78.25
2022-08-07T05:44:29.671Z,79.62
2022-08-07T05:46:57.576Z,78.55
2022-08-07T05:49:27.802Z,77.51
2022-08-07T05:52:11.704Z,75.98
2022-08-07T05:54:53.575Z,77.62
2022-08-07T05:57:30.190Z,78.50
2022-08-07T06:00:01.433Z,77.93
2022-08-07T06:02:31.274Z,77.39
2022-08-07T06:05:03.343Z,77.34
2022-08-07T06:08:14.321Z,78.29
2022-08-07T06:10:18.505Z,77.77
2022-08-07T06:12:46.871Z,78.27
2022-08-07T06:15:16.417Z,77.45
2022-08-07T06:17:53.374Z,76.77
2022-08-07T06:20:31.804Z,78.27
2022-08-07T06:23:02.135Z,77.20
2022-08-07T06:25:54.712Z,76.25
2022-08-07T06:28:27.207Z,77.21
2022-08-07T06:30:55.774Z,78.45
2022-08-07T06:33:24.350Z,76.87
2022-08-07T06:36:06.414Z,76.26
2022-08-07T06:38:38.766Z,78.43
2022-08-07T06:41:58.794Z,77.67
2022-08-07T06:44:17.367Z,77.03
2022-08-07T06:46:53.591Z,77.47
2022-08-07T06:49:33.923Z,77.95
2022-08-07T06:52:31.575Z,76.83
2022-08-07T06:55:32.249Z,75.43
2022-08-07T06:57:59.223Z,74.87
2022-08-07T07:00:31.066Z,75.20
2022-08-07T07:03:00.788Z,75.02
2022-08-07T07:06:03.514Z,74.85
2022-08-07T07:08:26.712Z,72.00
2022-08-07T07:10:56.757Z,73.32
2022-08-07T07:13:57.949Z,73.95
2022-08-07T07:16:49.846Z,73.96
2022-08-07T07:19:55.799Z,73.66
2022-08-07T07:22:35.710Z,72.71
2022-08-07T07:26:30.862Z,70.89
2022-08-07T07:28:42.337Z,71.55
2022-08-07T07:31:05.510Z,72.03
2022-08-07T07:33:37.644Z,72.70
2022-08-07T07:36:12.725Z,71.34
2022-08-07T07:38:47.634Z,69.69
2022-08-07T07:41:17.931Z,68.94
2022-08-07T07:44:16.949Z,70.05
2022-08-07T07:46:56.044Z,69.31
2022-08-07T07:50:36.041Z,68.51
2022-08-07T07:52:18.145Z,66.90
2022-08-07T07:54:51.508Z,69.12
2022-08-07T07:57:29.069Z,67.03
2022-08-07T08:00:28.901Z,67.59
2022-08-07T08:03:05.259Z,68.27
2022-08-07T08:05:51.135Z,68.79
2022-08-07T08:08:36.348Z,67.95
2022-08-07T08:11:08.549Z,67.65
2022-08-07T08:13:53.951Z,67.02
2022-08-07T08:16:35.117Z,65.89
2022-08-07T08:19:09.812Z,66.66
2022-08-07T08:22:11.644Z,65.68
2022-08-07T08:25:09.568Z,65.97
2022-08-07T08:27:56.806Z,65.64
2022-08-07T08:30:28.215Z,64.80
2022-08-07T08:32:58.833Z,62.14
2022-08-07T08:35:28.796Z,63.29
2022-08-07T08:38:08.924Z,61.82
2022-08-07T08:40:46.829Z,60.09
2022-08-07T08:43:41.979Z,61.31
2022-08-07T08:46:49.175Z,63.16
2022-08-07T08:50:02.143Z,61.76
2022-08-07T08:52:36.089Z,60.61
2022-08-07T08:55:55.284Z,60.92
2022-08-07T08:58:20.267Z,60.20
2022-08-07T09:01:14.605Z,61.32
2022-08-07T09:04:11.061Z,61.54
2022-08-07T09:06:50.302Z,62.53
2022-08-07T09:09:47.502Z,62.02
2022-08-07T09:12:33.130Z,61.20
2022-08-07T09:16:20.036Z,60.14
2022-08-07T09:18:15.689Z,59.01
2022-08-07T09:21:06.076Z,57.85
2022-08-07T09:24:32.048Z,60.67
2022-08-07T09:27:23.771Z,59.72
2022-08-07T09:30:08.013Z,57.67
2022-08-07T09:32:47.771Z,56.76
2022-08-07T09:36:01.148Z,55.61
2022-08-07T09:38:50.261Z,55.69
2022-08-07T09:41:59.045Z,54.74
2022-08-07T09:47:20.037Z,52.64
2022-08-07T09:48:15.445Z,54.81
2022-08-07T09:51:05.450Z,55.38
2022-08-07T09:54:02.359Z,53.89
2022-08-07T09:56:37.296Z,54.20
2022-08-07T09:59:28.135Z,54.07
2022-08-07T10:02:16.225Z,53.48
2022-08-07T10:04:46.191Z,53.35
2022-08-07T10:07:26.212Z,53.76
2022-08-07T10:10:23.847Z,53.98
2022-08-07T10:13:15.751Z,52.23
2022-08-07T10:16:14.721Z,52.54
2022-08-07T10:19:01.228Z,51.83
2022-08-07T10:22:15.583Z,52.16
2022-08-07T10:24:58.063Z,50.64
2022-08-07T10:27:46.252Z,50.56
2022-08-07T10:30:20.125Z,48.65
2022-08-07T10:33:14.924Z,49.38
2022-08-07T10:36:14.596Z,49.54
2022-08-07T10:38:51.226Z,48.69
2022-08-07T10:41:53.169Z,48.50
2022-08-07T10:44:37.625Z,47.43
2022-08-07T10:47:53.848Z,47.17
2022-08-07T10:50:44.846Z,47.58
2022-08-07T10:53:44.326Z,47.52
2022-08-07T10:56:31.789Z,47.00
2022-08-07T10:59:21.689Z,46.79
2022-08-07T11:01:51.344Z,47.66
2022-08-07T11:05:07.317Z,47.65
2022-08-07T11:08:00.284Z,47.48
2022-08-07T11:10:34.863Z,46.73
2022-08-07T11:14:41.994Z,46.85
2022-08-07T11:34:29.320Z,46.50
2022-08-07T11:37:03.097Z,46.69
2022-08-07T11:40:00.462Z,46.12
2022-08-07T11:42:43.889Z,44.91
2022-08-07T11:45:49.956Z,45.17
2022-08-07T11:48:53.820Z,44.09
2022-08-07T11:51:41.717Z,42.51
2022-08-07T11:54:26.741Z,42.67
2022-08-07T11:57:12.712Z,42.35
2022-08-07T12:00:11.639Z,43.67
2022-08-07T12:02:57.923Z,44.03
2022-08-07T12:05:48.936Z,43.17
2022-08-07T12:08:35.028Z,42.70
2022-08-07T12:12:09.414Z,43.23
2022-08-07T12:14:37.102Z,43.22
2022-08-07T12:17:20.486Z,42.28
2022-08-07T12:20:03.914Z,42.17
2022-08-07T12:22:56.170Z,42.56
2022-08-07T12:26:22.450Z,43.27
2022-08-07T12:28:56.354Z,42.52
2022-08-07T12:31:52.329Z,41.73
2022-08-07T12:34:21.452Z,42.08
2022-08-07T12:36:51.240Z,40.95
2022-08-07T12:39:43.051Z,39.78
2022-08-07T12:42:13.125Z,41.24
2022-08-07T12:44:45.423Z,40.10
2022-08-07T12:47:31.091Z,39.45
2022-08-07T12:50:33.785Z,40.74
2022-08-07T12:53:22.426Z,40.10
2022-08-07T12:56:02.990Z,40.52
2022-08-07T12:58:37.571Z,39.90
2022-08-07T13:01:08.946Z,39.62
2022-08-07T13:04:02.364Z,39.95
2022-08-07T13:07:01.347Z,40.39
2022-08-07T13:10:36.734Z,40.09
2022-08-07T13:12:39.544Z,40.34
2022-08-07T13:15:39.179Z,38.04
2022-08-07T13:18:34.237Z,41.22
2022-08-07T13:21:09.655Z,41.06
2022-08-07T13:24:01.872Z,40.02
2022-08-07T13:26:33.899Z,41.09
2022-08-07T13:29:24.512Z,40.84
2022-08-07T13:32:23.689Z,38.69
2022-08-07T13:35:00.424Z,37.79
2022-08-07T13:37:59.144Z,36.66
2022-08-07T13:40:35.322Z,36.63
2022-08-07T13:43:13.254Z,35.55
2022-08-07T13:46:11.254Z,36.43
2022-08-07T13:48:35.037Z,37.31
2022-08-07T13:51:27.139Z,37.80
2022-08-07T13:54:00.874Z,37.18
2022-08-07T13:56:35.040Z,35.93
2022-08-07T13:59:12.724Z,35.12
2022-08-07T14:02:03.606Z,35.04
2022-08-07T14:04:36.075Z,35.22
2022-08-07T14:07:09.516Z,34.96
2022-08-07T14:10:12.007Z,34.99
2022-08-07T14:12:31.137Z,35.17
2022-08-07T14:15:08.871Z,33.49
2022-08-07T14:18:24.513Z,33.12
2022-08-07T14:20:40.965Z,35.62
2022-08-07T14:23:59.347Z,34.45
2022-08-07T14:26:28.326Z,35.67
2022-08-07T14:29:04.438Z,37.50
2022-08-07T14:34:29.524Z,33.92
2022-08-07T14:37:02.000Z,33.69
2022-08-07T14:40:17.707Z,32.12
2022-08-07T14:42:31.229Z,32.07
2022-08-07T14:45:21.457Z,32.27
2022-08-07T14:47:51.231Z,31.85
2022-08-07T14:50:22.630Z,31.68
2022-08-07T14:52:52.985Z,30.93
2022-08-07T14:55:20.594Z,31.87
2022-08-07T15:00:41.053Z,33.11
2022-08-07T15:06:04.298Z,33.84
2022-08-07T15:11:50.790Z,37.79
2022-08-07T15:17:16.690Z,38.04
2022-08-07T15:20:30.959Z,37.59
2022-08-07T15:22:53.744Z,36.77
2022-08-07T15:25:36.952Z,35.99
2022-08-07T15:28:34.764Z,38.92
2022-08-07T15:31:04.738Z,38.00
2022-08-07T15:33:36.355Z,36.11
2022-08-07T15:36:07.904Z,34.98
2022-08-07T15:38:51.315Z,33.80
2022-08-07T15:42:45.155Z,33.85
2022-08-07T15:44:18.900Z,34.76
2022-08-07T15:46:53.131Z,34.81
2022-08-07T15:50:04.363Z,36.07
2022-08-07T15:52:17.241Z,35.91
2022-08-07T15:54:49.604Z,34.64
2022-08-07T15:57:28.282Z,33.97
2022-08-07T16:00:08.256Z,34.48
2022-08-07T16:02:47.137Z,35.58
2022-08-07T16:05:20.067Z,34.96
2022-08-07T16:08:32.778Z,34.46
2022-08-07T16:10:48.495Z,34.92
2022-08-07T16:13:58.855Z,35.46
2022-08-07T16:16:48.541Z,35.00
2022-08-07T16:19:59.072Z,35.78
2022-08-07T16:22:33.683Z,35.41
2022-08-07T16:25:52.326Z,35.57
2022-08-07T16:30:06.460Z,36.49
2022-08-07T16:31:25.208Z,35.96
2022-08-07T16:34:49.976Z,36.85
2022-08-07T16:38:06.046Z,37.62
2022-08-07T16:40:28.789Z,36.97
2022-08-07T16:43:15.642Z,37.05
2022-08-07T16:46:33.209Z,37.72
2022-08-07T16:50:27.053Z,37.80
2022-08-07T16:52:51.850Z,38.59
2022-08-07T16:55:47.417Z,39.46
2022-08-07T16:58:33.711Z,39.83
2022-08-07T17:01:34.261Z,40.29
2022-08-07T17:04:12.523Z,39.88
2022-08-07T17:07:09.182Z,39.94
2022-08-07T17:10:06.649Z,40.38
2022-08-07T17:12:53.094Z,41.55
2022-08-07T17:15:28.869Z,42.62
2022-08-07T17:18:26.205Z,43.41
2022-08-07T17:20:53.909Z,43.79
2022-08-07T17:23:39.888Z,44.42
2022-08-07T17:26:23.466Z,45.43
2022-08-07T17:30:14.322Z,45.74
2022-08-07T17:32:31.260Z,46.36
2022-08-07T17:35:51.776Z,46.43
2022-08-07T17:38:39.696Z,46.64
2022-08-07T17:42:04.655Z,46.78
2022-08-07T17:44:41.470Z,47.37
2022-08-07T17:47:16.606Z,47.51
2022-08-07T17:50:03.272Z,48.47
2022-08-07T17:52:39.898Z,48.73
2022-08-07T17:56:01.195Z,48.71
2022-08-07T17:58:30.750Z,49.11
2022-08-07T18:01:02.872Z,49.02
2022-08-07T18:04:07.384Z,49.76
2022-08-07T18:07:19.608Z,49.73
2022-08-07T18:10:06.725Z,50.00
2022-08-07T18:13:06.784Z,50.54
2022-08-07T18:15:54.896Z,50.39
2022-08-07T18:18:45.479Z,50.61
2022-08-07T18:21:57.874Z,51.40
2022-08-07T18:24:37.311Z,51.15
2022-08-07T18:27:39.317Z,51.87
2022-08-07T18:30:32.583Z,51.67
2022-08-07T18:33:12.015Z,51.53
2022-08-07T18:35:57.541Z,51.97
2022-08-07T18:38:58.809Z,52.11
2022-08-07T18:42:05.224Z,52.93
2022-08-07T18:45:43.376Z,52.39
2022-08-07T18:47:45.356Z,52.53
2022-08-07T18:50:43.905Z,52.77
2022-08-07T18:53:22.023Z,53.30
2022-08-07T18:56:34.967Z,53.85
2022-08-07T18:59:47.186Z,54.25
2022-08-07T19:02:58.913Z,54.23
2022-08-07T19:06:02.596Z,54.72
2022-08-07T19:08:55.734Z,55.01
2022-08-07T19:12:04.239Z,55.15
2022-08-07T19:14:52.959Z,55.44
2022-08-07T19:17:58.854Z,55.24
2022-08-07T19:20:28.999Z,55.37
2022-08-07T19:23:18.924Z,55.58
2022-08-07T19:26:25.249Z,55.92
2022-08-07T19:30:54.518Z,55.56
2022-08-07T19:32:01.172Z,56.26
2022-08-07T19:34:34.001Z,56.68
2022-08-07T19:37:10.177Z,56.21
2022-08-07T19:39:57.350Z,56.26
2022-08-07T19:42:31.138Z,56.82
2022-08-07T19:45:09.477Z,56.59
2022-08-07T19:47:42.127Z,57.01
2022-08-07T19:50:44.414Z,57.18
2022-08-07T19:52:58.924Z,57.30
2022-08-07T19:55:56.525Z,57.42
2022-08-07T19:58:18.519Z,57.67
2022-08-07T20:00:57.203Z,57.63
2022-08-07T20:03:34.468Z,57.48
2022-08-07T20:06:06.360Z,57.52
2022-08-07T20:08:50.709Z,57.77
2022-08-07T20:11:23.273Z,57.88
2022-08-07T20:14:13.759Z,58.06
2022-08-07T20:16:48.249Z,58.02
2022-08-07T20:19:23.925Z,58.00
2022-08-07T20:21:57.034Z,58.50
2022-08-07T20:24:32.647Z,58.39
2022-08-07T20:27:02.437Z,58.87
2022-08-07T20:29:48.401Z,58.59
2022-08-07T20:32:40.388Z,58.96
2022-08-07T20:35:26.243Z,59.49
2022-08-07T20:37:58.756Z,59.97
2022-08-07T20:40:33.453Z,59.82
2022-08-07T20:43:03.190Z,60.21
2022-08-07T20:46:26.477Z,60.33
2022-08-07T20:48:30.088Z,60.64
2022-08-07T20:51:03.076Z,60.70
2022-08-07T20:54:02.159Z,60.81
2022-08-07T20:56:29.394Z,60.82
2022-08-07T20:58:58.833Z,61.32
2022-08-07T21:01:36.613Z,61.06
2022-08-07T21:04:22.162Z,61.15
2022-08-07T21:06:53.383Z,61.37
2022-08-07T21:09:24.361Z,61.78
2022-08-07T21:11:57.233Z,61.65
2022-08-07T21:14:32.038Z,61.70
2022-08-07T21:18:02.256Z,62.08
2022-08-07T21:20:05.129Z,62.50
2022-08-07T21:22:39.511Z,63.11
2022-08-07T21:25:29.117Z,63.05
2022-08-07T21:28:16.792Z,63.76
2022-08-07T21:32:10.823Z,63.55
2022-08-07T21:34:46.025Z,63.29
2022-08-07T21:37:59.640Z,63.71
2022-08-07T21:40:57.480Z,63.67
2022-08-07T21:43:47.338Z,63.98
2022-08-07T21:46:48.111Z,63.90
2022-08-07T21:50:01.890Z,64.12
2022-08-07T21:52:57.927Z,64.26
2022-08-07T21:55:30.892Z,64.19
2022-08-07T21:58:12.173Z,64.09
2022-08-07T22:00:54.202Z,64.69
2022-08-07T22:03:36.014Z,64.69
2022-08-07T22:06:30.259Z,65.45
2022-08-07T22:09:01.446Z,65.17
2022-08-07T22:11:53.120Z,65.12
2022-08-07T22:14:36.607Z,65.35
2022-08-07T22:17:05.900Z,65.43
2022-08-07T22:19:41.408Z,65.65
2022-08-07T22:22:20.811Z,66.23
2022-08-07T22:25:07.548Z,67.02
2022-08-07T22:28:07.372Z,67.11
2022-08-07T22:30:57.355Z,67.43
2022-08-07T22:33:56.408Z,67.77
2022-08-07T22:36:52.600Z,67.96
2022-08-07T22:39:53.003Z,68.53
2022-08-07T22:42:25.577Z,68.75
2022-08-07T22:46:04.326Z,69.27
2022-08-07T22:48:31.480Z,69.42
2022-08-07T22:51:24.374Z,68.95
2022-08-07T22:54:12.043Z,68.93
2022-08-07T22:56:42.630Z,69.64
2022-08-07T22:59:34.655Z,69.94
2022-08-07T23:02:18.300Z,69.89
2022-08-07T23:06:08.709Z,70.81
2022-08-07T23:08:46.269Z,71.21
2022-08-07T23:11:41.186Z,71.90
2022-08-07T23:14:47.550Z,70.89
2022-08-07T23:17:26.857Z,69.77
2022-08-07T23:20:51.560Z,69.93
2022-08-07T23:24:06.215Z,69.56
2022-08-07T23:26:28.356Z,70.28
2022-08-07T23:30:36.345Z,69.77
2022-08-07T23:34:22.816Z,69.37
2022-08-07T23:36:10.622Z,69.25
2022-08-07T23:39:16.035Z,69.47
2022-08-07T23:42:15.610Z,69.52
2022-08-07T23:45:07.317Z,70.26
2022-08-07T23:48:20.655Z,70.06
2022-08-07T23:52:58.942Z,70.01
2022-08-07T23:54:44.057Z,69.94
2022-08-07T23:57:35.396Z,69.46
